sensor_id;sensor_type;location;lat;lon;timestamp;P1;durP1;ratioP1;P2;durP2;ratioP2
13785;SDS011;47474;48.824;9.384;2023-02-26T00:01:12;4.80;;;2.30;;
13785;SDS011;47474;48.824;9.384;2023-02-26T00:03:39;2.73;;;1.97;;
13785;SDS011;47474;48.824;9.384;2023-02-26T00:06:06;2.50;;;1.90;;
13785;SDS011;47474;48.824;9.384;2023-02-26T00:08:33;2.53;;;2.17;;
13785;SDS011;47474;48.824;9.384;2023-02-26T00:11:00;2.67;;;2.13;;
13785;SDS011;47474;48.824;9.384;2023-02-26T00:13:27;2.17;;;1.97;;
13785;SDS011;47474;48.824;9.384;2023-02-26T00:15:55;2.97;;;2.13;;
13785;SDS011;47474;48.824;9.384;2023-02-26T00:18:26;1.70;;;1.60;;
13785;SDS011;47474;48.824;9.384;2023-02-26T00:20:53;4.37;;;2.00;;
13785;SDS011;47474;48.824;9.384;2023-02-26T00:23:20;10.70;;;6.67;;
13785;SDS011;47474;48.824;9.384;2023-02-26T00:25:48;6.57;;;3.07;;
13785;SDS011;47474;48.824;9.384;2023-02-26T00:28:14;2.53;;;2.07;;
13785;SDS011;47474;48.824;9.384;2023-02-26T00:30:41;6.47;;;2.13;;
13785;SDS011;47474;48.824;9.384;2023-02-26T00:33:08;3.83;;;2.20;;
13785;SDS011;47474;48.824;9.384;2023-02-26T00:35:37;2.03;;;1.80;;
13785;SDS011;47474;48.824;9.384;2023-02-26T00:38:04;3.37;;;2.07;;
13785;SDS011;47474;48.824;9.384;2023-02-26T00:40:36;2.23;;;2.00;;
13785;SDS011;47474;48.824;9.384;2023-02-26T00:43:06;2.63;;;1.90;;
13785;SDS011;47474;48.824;9.384;2023-02-26T00:45:34;2.90;;;2.13;;
13785;SDS011;47474;48.824;9.384;2023-02-26T00:48:07;2.70;;;2.03;;
13785;SDS011;47474;48.824;9.384;2023-02-26T00:50:54;2.90;;;2.10;;
13785;SDS011;47474;48.824;9.384;2023-02-26T00:53:26;4.97;;;2.60;;
13785;SDS011;47474;48.824;9.384;2023-02-26T00:55:54;2.90;;;2.10;;
13785;SDS011;47474;48.824;9.384;2023-02-26T00:58:20;2.30;;;2.10;;
13785;SDS011;47474;48.824;9.384;2023-02-26T01:00:47;3.70;;;2.07;;
13785;SDS011;47474;48.824;9.384;2023-02-26T01:03:13;2.57;;;1.87;;
13785;SDS011;47474;48.824;9.384;2023-02-26T01:05:40;4.73;;;2.10;;
13785;SDS011;47474;48.824;9.384;2023-02-26T01:08:11;4.00;;;2.00;;
13785;SDS011;47474;48.824;9.384;2023-02-26T01:10:39;2.77;;;1.93;;
13785;SDS011;47474;48.824;9.384;2023-02-26T01:13:06;2.83;;;1.73;;
13785;SDS011;47474;48.824;9.384;2023-02-26T01:15:34;2.30;;;1.80;;
13785;SDS011;47474;48.824;9.384;2023-02-26T01:18:04;2.67;;;2.17;;
13785;SDS011;47474;48.824;9.384;2023-02-26T01:20:33;2.90;;;2.17;;
13785;SDS011;47474;48.824;9.384;2023-02-26T01:23:03;6.00;;;2.13;;
13785;SDS011;47474;48.824;9.384;2023-02-26T01:25:34;2.70;;;2.00;;
13785;SDS011;47474;48.824;9.384;2023-02-26T01:28:02;2.50;;;2.10;;
13785;SDS011;47474;48.824;9.384;2023-02-26T01:30:29;2.60;;;2.00;;
13785;SDS011;47474;48.824;9.384;2023-02-26T01:32:58;3.77;;;2.23;;
13785;SDS011;47474;48.824;9.384;2023-02-26T01:35:31;3.57;;;1.63;;
13785;SDS011;47474;48.824;9.384;2023-02-26T01:38:06;4.17;;;1.77;;
13785;SDS011;47474;48.824;9.384;2023-02-26T01:40:50;2.20;;;1.87;;
13785;SDS011;47474;48.824;9.384;2023-02-26T01:43:30;2.87;;;2.00;;
13785;SDS011;47474;48.824;9.384;2023-02-26T01:46:02;2.40;;;2.07;;
13785;SDS011;47474;48.824;9.384;2023-02-26T01:48:34;2.23;;;2.03;;
13785;SDS011;47474;48.824;9.384;2023-02-26T01:51:03;3.07;;;2.00;;
13785;SDS011;47474;48.824;9.384;2023-02-26T01:53:30;3.53;;;2.03;;
13785;SDS011;47474;48.824;9.384;2023-02-26T01:55:59;2.97;;;2.10;;
13785;SDS011;47474;48.824;9.384;2023-02-26T01:58:29;5.73;;;3.00;;
13785;SDS011;47474;48.824;9.384;2023-02-26T02:00:57;2.37;;;2.00;;
13785;SDS011;47474;48.824;9.384;2023-02-26T02:03:24;3.50;;;2.10;;
13785;SDS011;47474;48.824;9.384;2023-02-26T02:05:53;2.27;;;1.93;;
13785;SDS011;47474;48.824;9.384;2023-02-26T02:08:21;5.77;;;2.37;;
13785;SDS011;47474;48.824;9.384;2023-02-26T02:10:48;2.77;;;2.00;;
13785;SDS011;47474;48.824;9.384;2023-02-26T02:13:21;3.00;;;1.57;;
13785;SDS011;47474;48.824;9.384;2023-02-26T02:15:58;2.43;;;1.97;;
13785;SDS011;47474;48.824;9.384;2023-02-26T02:18:34;2.53;;;2.10;;
13785;SDS011;47474;48.824;9.384;2023-02-26T02:21:12;3.00;;;2.27;;
13785;SDS011;47474;48.824;9.384;2023-02-26T02:23:55;3.13;;;2.00;;
13785;SDS011;47474;48.824;9.384;2023-02-26T02:26:34;4.67;;;2.40;;
13785;SDS011;47474;48.824;9.384;2023-02-26T02:29:13;2.70;;;2.03;;
13785;SDS011;47474;48.824;9.384;2023-02-26T02:31:56;2.57;;;2.00;;
13785;SDS011;47474;48.824;9.384;2023-02-26T02:34:24;2.37;;;1.83;;
13785;SDS011;47474;48.824;9.384;2023-02-26T02:36:54;3.30;;;2.13;;
13785;SDS011;47474;48.824;9.384;2023-02-26T02:39:24;4.13;;;2.20;;
13785;SDS011;47474;48.824;9.384;2023-02-26T02:41:53;4.57;;;2.50;;
13785;SDS011;47474;48.824;9.384;2023-02-26T02:44:23;2.40;;;2.10;;
13785;SDS011;47474;48.824;9.384;2023-02-26T02:46:52;4.63;;;2.80;;
13785;SDS011;47474;48.824;9.384;2023-02-26T02:49:22;4.00;;;2.37;;
13785;SDS011;47474;48.824;9.384;2023-02-26T02:51:52;4.00;;;2.30;;
13785;SDS011;47474;48.824;9.384;2023-02-26T02:54:21;3.27;;;2.17;;
13785;SDS011;47474;48.824;9.384;2023-02-26T02:56:52;3.83;;;2.10;;
13785;SDS011;47474;48.824;9.384;2023-02-26T02:59:22;3.13;;;2.47;;
13785;SDS011;47474;48.824;9.384;2023-02-26T03:01:52;2.30;;;1.97;;
13785;SDS011;47474;48.824;9.384;2023-02-26T03:04:24;4.27;;;2.23;;
13785;SDS011;47474;48.824;9.384;2023-02-26T03:06:51;2.73;;;2.20;;
13785;SDS011;47474;48.824;9.384;2023-02-26T03:09:18;3.47;;;2.07;;
13785;SDS011;47474;48.824;9.384;2023-02-26T03:11:44;1.93;;;1.57;;
13785;SDS011;47474;48.824;9.384;2023-02-26T03:14:11;4.27;;;2.10;;
13785;SDS011;47474;48.824;9.384;2023-02-26T03:16:42;4.93;;;2.07;;
13785;SDS011;47474;48.824;9.384;2023-02-26T03:19:17;2.10;;;1.70;;
13785;SDS011;47474;48.824;9.384;2023-02-26T03:21:52;2.53;;;1.90;;
13785;SDS011;47474;48.824;9.384;2023-02-26T03:24:23;7.07;;;2.00;;
13785;SDS011;47474;48.824;9.384;2023-02-26T03:26:54;5.13;;;2.33;;
13785;SDS011;47474;48.824;9.384;2023-02-26T03:29:25;2.63;;;2.00;;
13785;SDS011;47474;48.824;9.384;2023-02-26T03:31:54;2.70;;;1.93;;
13785;SDS011;47474;48.824;9.384;2023-02-26T03:34:23;3.63;;;2.00;;
13785;SDS011;47474;48.824;9.384;2023-02-26T03:36:55;2.17;;;1.57;;
13785;SDS011;47474;48.824;9.384;2023-02-26T03:39:24;4.50;;;2.60;;
13785;SDS011;47474;48.824;9.384;2023-02-26T03:41:53;4.27;;;2.93;;
13785;SDS011;47474;48.824;9.384;2023-02-26T03:44:23;6.57;;;2.60;;
13785;SDS011;47474;48.824;9.384;2023-02-26T03:46:53;2.70;;;1.90;;
13785;SDS011;47474;48.824;9.384;2023-02-26T03:49:23;6.17;;;1.70;;
13785;SDS011;47474;48.824;9.384;2023-02-26T03:51:51;2.63;;;1.80;;
13785;SDS011;47474;48.824;9.384;2023-02-26T03:54:20;4.37;;;2.10;;
13785;SDS011;47474;48.824;9.384;2023-02-26T03:56:51;2.63;;;1.83;;
13785;SDS011;47474;48.824;9.384;2023-02-26T03:59:18;5.57;;;2.53;;
13785;SDS011;47474;48.824;9.384;2023-02-26T04:01:46;3.40;;;1.80;;
13785;SDS011;47474;48.824;9.384;2023-02-26T04:04:15;2.63;;;2.17;;
13785;SDS011;47474;48.824;9.384;2023-02-26T04:06:43;3.90;;;2.60;;
13785;SDS011;47474;48.824;9.384;2023-02-26T04:09:09;4.40;;;2.30;;
13785;SDS011;47474;48.824;9.384;2023-02-26T04:11:37;3.20;;;2.57;;
13785;SDS011;47474;48.824;9.384;2023-02-26T04:14:04;3.53;;;2.23;;
13785;SDS011;47474;48.824;9.384;2023-02-26T04:16:31;2.70;;;2.13;;
13785;SDS011;47474;48.824;9.384;2023-02-26T04:18:57;2.47;;;2.27;;
13785;SDS011;47474;48.824;9.384;2023-02-26T04:21:24;4.47;;;2.50;;
13785;SDS011;47474;48.824;9.384;2023-02-26T04:23:50;3.17;;;2.40;;
13785;SDS011;47474;48.824;9.384;2023-02-26T04:26:17;4.37;;;2.50;;
13785;SDS011;47474;48.824;9.384;2023-02-26T04:28:44;5.63;;;2.40;;
13785;SDS011;47474;48.824;9.384;2023-02-26T04:31:11;3.73;;;2.27;;
13785;SDS011;47474;48.824;9.384;2023-02-26T04:33:37;2.90;;;2.40;;
13785;SDS011;47474;48.824;9.384;2023-02-26T04:36:04;3.37;;;2.50;;
13785;SDS011;47474;48.824;9.384;2023-02-26T04:38:31;3.03;;;2.37;;
13785;SDS011;47474;48.824;9.384;2023-02-26T04:40:58;5.53;;;2.83;;
13785;SDS011;47474;48.824;9.384;2023-02-26T04:43:24;4.07;;;2.37;;
13785;SDS011;47474;48.824;9.384;2023-02-26T04:45:52;4.67;;;2.80;;
13785;SDS011;47474;48.824;9.384;2023-02-26T04:48:19;3.97;;;2.93;;
13785;SDS011;47474;48.824;9.384;2023-02-26T04:50:45;3.73;;;2.57;;
13785;SDS011;47474;48.824;9.384;2023-02-26T04:53:12;4.80;;;3.10;;
13785;SDS011;47474;48.824;9.384;2023-02-26T04:55:38;4.90;;;2.90;;
13785;SDS011;47474;48.824;9.384;2023-02-26T04:58:05;3.53;;;2.53;;
13785;SDS011;47474;48.824;9.384;2023-02-26T05:00:32;4.60;;;2.77;;
13785;SDS011;47474;48.824;9.384;2023-02-26T05:03:00;3.70;;;2.57;;
13785;SDS011;47474;48.824;9.384;2023-02-26T05:05:26;3.93;;;2.60;;
13785;SDS011;47474;48.824;9.384;2023-02-26T05:07:53;4.67;;;2.70;;
13785;SDS011;47474;48.824;9.384;2023-02-26T05:10:20;2.40;;;2.10;;
13785;SDS011;47474;48.824;9.384;2023-02-26T05:12:47;2.33;;;2.13;;
13785;SDS011;47474;48.824;9.384;2023-02-26T05:15:13;6.87;;;3.20;;
13785;SDS011;47474;48.824;9.384;2023-02-26T05:17:40;6.60;;;3.60;;
13785;SDS011;47474;48.824;9.384;2023-02-26T05:20:09;8.90;;;3.70;;
13785;SDS011;47474;48.824;9.384;2023-02-26T05:22:36;5.63;;;3.77;;
13785;SDS011;47474;48.824;9.384;2023-02-26T05:25:03;5.37;;;3.50;;
13785;SDS011;47474;48.824;9.384;2023-02-26T05:27:30;5.57;;;3.23;;
13785;SDS011;47474;48.824;9.384;2023-02-26T05:29:57;6.30;;;3.33;;
13785;SDS011;47474;48.824;9.384;2023-02-26T05:32:24;4.63;;;2.87;;
13785;SDS011;47474;48.824;9.384;2023-02-26T05:34:50;6.33;;;3.30;;
13785;SDS011;47474;48.824;9.384;2023-02-26T05:37:18;5.13;;;3.33;;
13785;SDS011;47474;48.824;9.384;2023-02-26T05:39:44;3.87;;;3.07;;
13785;SDS011;47474;48.824;9.384;2023-02-26T05:42:11;4.90;;;2.90;;
13785;SDS011;47474;48.824;9.384;2023-02-26T05:44:37;4.20;;;3.20;;
13785;SDS011;47474;48.824;9.384;2023-02-26T05:47:04;6.27;;;2.37;;
13785;SDS011;47474;48.824;9.384;2023-02-26T05:49:30;3.00;;;2.63;;
13785;SDS011;47474;48.824;9.384;2023-02-26T05:51:57;4.27;;;2.80;;
13785;SDS011;47474;48.824;9.384;2023-02-26T05:54:25;3.23;;;2.27;;
13785;SDS011;47474;48.824;9.384;2023-02-26T05:56:51;4.80;;;3.03;;
13785;SDS011;47474;48.824;9.384;2023-02-26T05:59:18;3.03;;;2.13;;
13785;SDS011;47474;48.824;9.384;2023-02-26T06:01:44;2.27;;;2.07;;
13785;SDS011;47474;48.824;9.384;2023-02-26T06:04:11;4.20;;;2.10;;
13785;SDS011;47474;48.824;9.384;2023-02-26T06:06:38;2.73;;;2.10;;
13785;SDS011;47474;48.824;9.384;2023-02-26T06:09:04;3.43;;;2.00;;
13785;SDS011;47474;48.824;9.384;2023-02-26T06:11:33;3.13;;;2.50;;
13785;SDS011;47474;48.824;9.384;2023-02-26T06:14:00;3.23;;;1.80;;
13785;SDS011;47474;48.824;9.384;2023-02-26T06:16:27;2.90;;;2.30;;
13785;SDS011;47474;48.824;9.384;2023-02-26T06:18:53;5.07;;;3.03;;
13785;SDS011;47474;48.824;9.384;2023-02-26T06:21:20;7.60;;;4.37;;
13785;SDS011;47474;48.824;9.384;2023-02-26T06:23:46;4.13;;;3.53;;
13785;SDS011;47474;48.824;9.384;2023-02-26T06:26:13;6.60;;;3.20;;
13785;SDS011;47474;48.824;9.384;2023-02-26T06:28:40;5.40;;;3.03;;
13785;SDS011;47474;48.824;9.384;2023-02-26T06:31:07;7.00;;;3.10;;
13785;SDS011;47474;48.824;9.384;2023-02-26T06:33:33;5.53;;;3.03;;
13785;SDS011;47474;48.824;9.384;2023-02-26T06:36:00;4.13;;;2.90;;
13785;SDS011;47474;48.824;9.384;2023-02-26T06:38:27;5.13;;;3.10;;
13785;SDS011;47474;48.824;9.384;2023-02-26T06:40:53;4.63;;;2.93;;
13785;SDS011;47474;48.824;9.384;2023-02-26T06:43:20;5.90;;;3.80;;
13785;SDS011;47474;48.824;9.384;2023-02-26T06:45:48;4.83;;;3.40;;
13785;SDS011;47474;48.824;9.384;2023-02-26T06:48:15;7.03;;;2.70;;
13785;SDS011;47474;48.824;9.384;2023-02-26T06:50:41;7.47;;;2.77;;
13785;SDS011;47474;48.824;9.384;2023-02-26T06:53:08;5.30;;;2.87;;
13785;SDS011;47474;48.824;9.384;2023-02-26T06:55:34;4.27;;;2.07;;
13785;SDS011;47474;48.824;9.384;2023-02-26T06:58:01;4.20;;;3.43;;
13785;SDS011;47474;48.824;9.384;2023-02-26T07:00:27;3.80;;;3.20;;
13785;SDS011;47474;48.824;9.384;2023-02-26T07:02:55;4.33;;;2.77;;
13785;SDS011;47474;48.824;9.384;2023-02-26T07:05:22;5.60;;;2.50;;
13785;SDS011;47474;48.824;9.384;2023-02-26T07:07:49;3.63;;;2.47;;
13785;SDS011;47474;48.824;9.384;2023-02-26T07:10:16;5.10;;;3.40;;
13785;SDS011;47474;48.824;9.384;2023-02-26T07:12:45;4.57;;;2.90;;
13785;SDS011;47474;48.824;9.384;2023-02-26T07:15:12;7.30;;;3.73;;
13785;SDS011;47474;48.824;9.384;2023-02-26T07:17:39;5.47;;;2.80;;
13785;SDS011;47474;48.824;9.384;2023-02-26T07:20:08;5.47;;;3.60;;
13785;SDS011;47474;48.824;9.384;2023-02-26T07:22:36;9.57;;;7.37;;
13785;SDS011;47474;48.824;9.384;2023-02-26T07:25:03;9.53;;;6.73;;
13785;SDS011;47474;48.824;9.384;2023-02-26T07:27:31;6.97;;;4.53;;
13785;SDS011;47474;48.824;9.384;2023-02-26T07:29:57;6.03;;;3.73;;
13785;SDS011;47474;48.824;9.384;2023-02-26T07:32:24;4.27;;;3.30;;
13785;SDS011;47474;48.824;9.384;2023-02-26T07:34:51;8.07;;;4.30;;
13785;SDS011;47474;48.824;9.384;2023-02-26T07:37:18;6.47;;;3.40;;
13785;SDS011;47474;48.824;9.384;2023-02-26T07:39:45;6.47;;;3.10;;
13785;SDS011;47474;48.824;9.384;2023-02-26T07:42:12;5.00;;;3.10;;
13785;SDS011;47474;48.824;9.384;2023-02-26T07:44:38;3.70;;;2.63;;
13785;SDS011;47474;48.824;9.384;2023-02-26T07:47:05;2.40;;;2.00;;
13785;SDS011;47474;48.824;9.384;2023-02-26T07:49:31;2.87;;;2.00;;
13785;SDS011;47474;48.824;9.384;2023-02-26T07:51:58;2.60;;;1.77;;
13785;SDS011;47474;48.824;9.384;2023-02-26T07:54:26;2.43;;;1.73;;
13785;SDS011;47474;48.824;9.384;2023-02-26T07:56:53;2.47;;;2.23;;
13785;SDS011;47474;48.824;9.384;2023-02-26T07:59:19;2.67;;;1.83;;
13785;SDS011;47474;48.824;9.384;2023-02-26T08:01:46;2.90;;;1.97;;
13785;SDS011;47474;48.824;9.384;2023-02-26T08:04:12;2.67;;;2.07;;
13785;SDS011;47474;48.824;9.384;2023-02-26T08:06:39;2.87;;;2.03;;
13785;SDS011;47474;48.824;9.384;2023-02-26T08:09:05;10.60;;;6.30;;
13785;SDS011;47474;48.824;9.384;2023-02-26T08:11:33;5.10;;;2.90;;
13785;SDS011;47474;48.824;9.384;2023-02-26T08:14:03;2.13;;;1.83;;
13785;SDS011;47474;48.824;9.384;2023-02-26T08:16:30;2.77;;;1.77;;
13785;SDS011;47474;48.824;9.384;2023-02-26T08:18:56;2.63;;;2.00;;
13785;SDS011;47474;48.824;9.384;2023-02-26T08:21:23;4.17;;;2.10;;
13785;SDS011;47474;48.824;9.384;2023-02-26T08:23:49;3.23;;;1.63;;
13785;SDS011;47474;48.824;9.384;2023-02-26T08:26:16;2.50;;;2.07;;
13785;SDS011;47474;48.824;9.384;2023-02-26T08:28:44;7.07;;;5.03;;
13785;SDS011;47474;48.824;9.384;2023-02-26T08:31:12;3.93;;;2.50;;
13785;SDS011;47474;48.824;9.384;2023-02-26T08:33:39;2.83;;;2.30;;
13785;SDS011;47474;48.824;9.384;2023-02-26T08:36:06;3.80;;;2.27;;
13785;SDS011;47474;48.824;9.384;2023-02-26T08:38:33;3.33;;;2.33;;
13785;SDS011;47474;48.824;9.384;2023-02-26T08:40:59;3.70;;;2.20;;
13785;SDS011;47474;48.824;9.384;2023-02-26T08:43:26;5.53;;;2.13;;
13785;SDS011;47474;48.824;9.384;2023-02-26T08:45:55;1.77;;;1.40;;
13785;SDS011;47474;48.824;9.384;2023-02-26T08:48:23;6.53;;;2.20;;
13785;SDS011;47474;48.824;9.384;2023-02-26T08:50:49;2.20;;;1.83;;
13785;SDS011;47474;48.824;9.384;2023-02-26T08:53:16;3.30;;;1.60;;
13785;SDS011;47474;48.824;9.384;2023-02-26T08:55:46;10.60;;;4.97;;
13785;SDS011;47474;48.824;9.384;2023-02-26T08:58:12;9.47;;;3.40;;
13785;SDS011;47474;48.824;9.384;2023-02-26T09:00:39;3.83;;;2.43;;
13785;SDS011;47474;48.824;9.384;2023-02-26T09:03:07;4.90;;;2.27;;
13785;SDS011;47474;48.824;9.384;2023-02-26T09:05:33;4.83;;;2.87;;
13785;SDS011;47474;48.824;9.384;2023-02-26T09:08:00;2.93;;;2.10;;
13785;SDS011;47474;48.824;9.384;2023-02-26T09:10:26;5.23;;;2.00;;
13785;SDS011;47474;48.824;9.384;2023-02-26T09:12:53;5.63;;;2.40;;
13785;SDS011;47474;48.824;9.384;2023-02-26T09:15:19;2.83;;;1.90;;
13785;SDS011;47474;48.824;9.384;2023-02-26T09:17:46;2.07;;;1.87;;
13785;SDS011;47474;48.824;9.384;2023-02-26T09:20:14;2.23;;;1.93;;
13785;SDS011;47474;48.824;9.384;2023-02-26T09:22:41;2.70;;;1.93;;
13785;SDS011;47474;48.824;9.384;2023-02-26T09:25:08;3.43;;;1.90;;
13785;SDS011;47474;48.824;9.384;2023-02-26T09:27:35;1.97;;;1.80;;
13785;SDS011;47474;48.824;9.384;2023-02-26T09:30:02;2.93;;;2.03;;
13785;SDS011;47474;48.824;9.384;2023-02-26T09:32:29;4.33;;;1.90;;
13785;SDS011;47474;48.824;9.384;2023-02-26T09:34:55;2.60;;;1.80;;
13785;SDS011;47474;48.824;9.384;2023-02-26T09:37:23;3.33;;;1.83;;
13785;SDS011;47474;48.824;9.384;2023-02-26T09:39:50;3.53;;;1.77;;
13785;SDS011;47474;48.824;9.384;2023-02-26T09:42:31;4.20;;;1.40;;
13785;SDS011;47474;48.824;9.384;2023-02-26T09:45:06;1.53;;;1.23;;
13785;SDS011;47474;48.824;9.384;2023-02-26T09:47:39;1.80;;;1.70;;
13785;SDS011;47474;48.824;9.384;2023-02-26T09:50:12;1.73;;;1.50;;
13785;SDS011;47474;48.824;9.384;2023-02-26T09:52:44;2.57;;;1.70;;
13785;SDS011;47474;48.824;9.384;2023-02-26T09:55:13;2.00;;;1.53;;
13785;SDS011;47474;48.824;9.384;2023-02-26T09:57:44;2.67;;;1.50;;
13785;SDS011;47474;48.824;9.384;2023-02-26T10:00:17;1.70;;;1.50;;
13785;SDS011;47474;48.824;9.384;2023-02-26T10:02:54;3.57;;;2.10;;
13785;SDS011;47474;48.824;9.384;2023-02-26T10:05:27;1.60;;;1.50;;
13785;SDS011;47474;48.824;9.384;2023-02-26T10:07:59;3.53;;;1.57;;
13785;SDS011;47474;48.824;9.384;2023-02-26T10:10:31;1.63;;;1.30;;
13785;SDS011;47474;48.824;9.384;2023-02-26T10:13:00;4.63;;;1.57;;
13785;SDS011;47474;48.824;9.384;2023-02-26T10:15:27;3.53;;;1.63;;
13785;SDS011;47474;48.824;9.384;2023-02-26T10:18:00;3.93;;;2.00;;
13785;SDS011;47474;48.824;9.384;2023-02-26T10:20:31;2.10;;;1.50;;
13785;SDS011;47474;48.824;9.384;2023-02-26T10:23:03;3.13;;;1.60;;
13785;SDS011;47474;48.824;9.384;2023-02-26T10:25:35;1.50;;;1.40;;
13785;SDS011;47474;48.824;9.384;2023-02-26T10:28:06;1.50;;;1.37;;
13785;SDS011;47474;48.824;9.384;2023-02-26T10:30:41;1.77;;;1.40;;
13785;SDS011;47474;48.824;9.384;2023-02-26T10:33:12;1.43;;;1.27;;
13785;SDS011;47474;48.824;9.384;2023-02-26T10:35:44;1.83;;;1.73;;
13785;SDS011;47474;48.824;9.384;2023-02-26T10:38:18;1.93;;;1.50;;
13785;SDS011;47474;48.824;9.384;2023-02-26T10:40:46;2.23;;;1.60;;
13785;SDS011;47474;48.824;9.384;2023-02-26T10:43:17;1.67;;;1.57;;
13785;SDS011;47474;48.824;9.384;2023-02-26T10:45:50;2.70;;;1.30;;
13785;SDS011;47474;48.824;9.384;2023-02-26T10:48:27;1.50;;;1.40;;
13785;SDS011;47474;48.824;9.384;2023-02-26T10:51:25;1.63;;;1.20;;
13785;SDS011;47474;48.824;9.384;2023-02-26T10:53:59;2.03;;;1.53;;
13785;SDS011;47474;48.824;9.384;2023-02-26T10:56:29;2.23;;;1.40;;
13785;SDS011;47474;48.824;9.384;2023-02-26T10:58:57;2.23;;;1.50;;
13785;SDS011;47474;48.824;9.384;2023-02-26T11:01:24;1.60;;;1.50;;
13785;SDS011;47474;48.824;9.384;2023-02-26T11:03:54;4.17;;;1.47;;
13785;SDS011;47474;48.824;9.384;2023-02-26T11:06:23;1.90;;;1.60;;
13785;SDS011;47474;48.824;9.384;2023-02-26T11:08:53;1.40;;;1.30;;
13785;SDS011;47474;48.824;9.384;2023-02-26T11:11:35;2.03;;;1.60;;
13785;SDS011;47474;48.824;9.384;2023-02-26T11:14:05;1.43;;;1.33;;
13785;SDS011;47474;48.824;9.384;2023-02-26T11:16:32;2.37;;;1.50;;
13785;SDS011;47474;48.824;9.384;2023-02-26T11:18:59;1.43;;;1.23;;
13785;SDS011;47474;48.824;9.384;2023-02-26T11:21:27;2.03;;;1.57;;
13785;SDS011;47474;48.824;9.384;2023-02-26T11:23:57;2.63;;;1.33;;
13785;SDS011;47474;48.824;9.384;2023-02-26T11:26:25;1.50;;;1.40;;
13785;SDS011;47474;48.824;9.384;2023-02-26T11:28:54;1.40;;;1.30;;
13785;SDS011;47474;48.824;9.384;2023-02-26T11:31:22;1.70;;;1.60;;
13785;SDS011;47474;48.824;9.384;2023-02-26T11:33:49;1.63;;;1.30;;
13785;SDS011;47474;48.824;9.384;2023-02-26T11:36:20;2.43;;;1.80;;
13785;SDS011;47474;48.824;9.384;2023-02-26T11:38:51;3.73;;;1.70;;
13785;SDS011;47474;48.824;9.384;2023-02-26T11:41:18;1.60;;;1.50;;
13785;SDS011;47474;48.824;9.384;2023-02-26T11:43:46;1.60;;;1.50;;
13785;SDS011;47474;48.824;9.384;2023-02-26T11:46:16;1.60;;;1.50;;
13785;SDS011;47474;48.824;9.384;2023-02-26T11:48:43;1.77;;;1.40;;
13785;SDS011;47474;48.824;9.384;2023-02-26T11:51:12;1.57;;;1.40;;
13785;SDS011;47474;48.824;9.384;2023-02-26T11:53:41;1.13;;;1.07;;
13785;SDS011;47474;48.824;9.384;2023-02-26T11:56:10;1.30;;;1.20;;
13785;SDS011;47474;48.824;9.384;2023-02-26T11:58:40;3.73;;;1.50;;
13785;SDS011;47474;48.824;9.384;2023-02-26T12:01:09;1.60;;;1.50;;
13785;SDS011;47474;48.824;9.384;2023-02-26T12:03:38;1.60;;;1.50;;
13785;SDS011;47474;48.824;9.384;2023-02-26T12:06:06;1.47;;;1.23;;
13785;SDS011;47474;48.824;9.384;2023-02-26T12:08:37;1.50;;;1.40;;
13785;SDS011;47474;48.824;9.384;2023-02-26T12:11:14;1.50;;;1.40;;
13785;SDS011;47474;48.824;9.384;2023-02-26T12:13:56;1.43;;;1.33;;
13785;SDS011;47474;48.824;9.384;2023-02-26T12:16:29;1.40;;;1.20;;
13785;SDS011;47474;48.824;9.384;2023-02-26T12:19:03;1.53;;;1.43;;
13785;SDS011;47474;48.824;9.384;2023-02-26T12:21:46;2.17;;;1.47;;
13785;SDS011;47474;48.824;9.384;2023-02-26T12:24:36;1.20;;;1.10;;
13785;SDS011;47474;48.824;9.384;2023-02-26T12:27:14;1.53;;;1.30;;
13785;SDS011;47474;48.824;9.384;2023-02-26T12:29:48;1.47;;;1.37;;
13785;SDS011;47474;48.824;9.384;2023-02-26T12:32:26;1.87;;;1.57;;
13785;SDS011;47474;48.824;9.384;2023-02-26T12:35:14;2.73;;;1.50;;
13785;SDS011;47474;48.824;9.384;2023-02-26T12:37:53;1.47;;;1.37;;
13785;SDS011;47474;48.824;9.384;2023-02-26T12:40:40;2.33;;;1.53;;
13785;SDS011;47474;48.824;9.384;2023-02-26T12:43:10;1.43;;;1.33;;
13785;SDS011;47474;48.824;9.384;2023-02-26T12:45:46;1.63;;;1.27;;
13785;SDS011;47474;48.824;9.384;2023-02-26T12:48:24;1.50;;;1.40;;
13785;SDS011;47474;48.824;9.384;2023-02-26T12:51:03;1.63;;;1.30;;
13785;SDS011;47474;48.824;9.384;2023-02-26T12:53:41;1.50;;;1.40;;
13785;SDS011;47474;48.824;9.384;2023-02-26T12:56:20;1.10;;;1.10;;
13785;SDS011;47474;48.824;9.384;2023-02-26T12:58:57;1.33;;;1.13;;
13785;SDS011;47474;48.824;9.384;2023-02-26T13:01:35;2.47;;;1.20;;
13785;SDS011;47474;48.824;9.384;2023-02-26T13:04:18;1.50;;;1.40;;
13785;SDS011;47474;48.824;9.384;2023-02-26T13:07:07;1.40;;;1.30;;
13785;SDS011;47474;48.824;9.384;2023-02-26T13:09:44;1.40;;;1.30;;
13785;SDS011;47474;48.824;9.384;2023-02-26T13:12:23;1.67;;;1.57;;
13785;SDS011;47474;48.824;9.384;2023-02-26T13:15:01;1.30;;;1.20;;
13785;SDS011;47474;48.824;9.384;2023-02-26T13:17:34;1.50;;;1.30;;
13785;SDS011;47474;48.824;9.384;2023-02-26T13:20:09;1.00;;;1.00;;
13785;SDS011;47474;48.824;9.384;2023-02-26T13:22:40;1.20;;;1.10;;
13785;SDS011;47474;48.824;9.384;2023-02-26T13:25:14;1.17;;;1.00;;
13785;SDS011;47474;48.824;9.384;2023-02-26T13:27:43;2.03;;;1.27;;
13785;SDS011;47474;48.824;9.384;2023-02-26T13:30:17;1.10;;;1.00;;
13785;SDS011;47474;48.824;9.384;2023-02-26T13:32:46;1.10;;;1.00;;
13785;SDS011;47474;48.824;9.384;2023-02-26T13:35:18;1.57;;;1.10;;
13785;SDS011;47474;48.824;9.384;2023-02-26T13:37:48;1.83;;;1.40;;
13785;SDS011;47474;48.824;9.384;2023-02-26T13:40:33;1.77;;;1.10;;
13785;SDS011;47474;48.824;9.384;2023-02-26T13:43:18;1.20;;;1.10;;
13785;SDS011;47474;48.824;9.384;2023-02-26T13:45:58;1.63;;;1.30;;
13785;SDS011;47474;48.824;9.384;2023-02-26T13:48:33;1.20;;;1.10;;
13785;SDS011;47474;48.824;9.384;2023-02-26T13:51:06;1.30;;;1.20;;
13785;SDS011;47474;48.824;9.384;2023-02-26T13:53:53;2.63;;;1.07;;
13785;SDS011;47474;48.824;9.384;2023-02-26T13:56:46;1.10;;;1.00;;
13785;SDS011;47474;48.824;9.384;2023-02-26T13:59:34;1.10;;;1.00;;
13785;SDS011;47474;48.824;9.384;2023-02-26T14:02:29;2.30;;;1.03;;
13785;SDS011;47474;48.824;9.384;2023-02-26T14:05:09;1.20;;;1.00;;
13785;SDS011;47474;48.824;9.384;2023-02-26T14:08:08;1.77;;;1.67;;
13785;SDS011;47474;48.824;9.384;2023-02-26T14:10:45;1.43;;;1.10;;
13785;SDS011;47474;48.824;9.384;2023-02-26T14:13:16;1.57;;;1.20;;
13785;SDS011;47474;48.824;9.384;2023-02-26T14:15:47;1.30;;;1.20;;
13785;SDS011;47474;48.824;9.384;2023-02-26T14:18:19;1.30;;;1.20;;
13785;SDS011;47474;48.824;9.384;2023-02-26T14:20:51;1.43;;;1.20;;
13785;SDS011;47474;48.824;9.384;2023-02-26T14:23:27;1.20;;;1.10;;
13785;SDS011;47474;48.824;9.384;2023-02-26T14:26:05;1.37;;;1.10;;
13785;SDS011;47474;48.824;9.384;2023-02-26T14:28:41;1.40;;;1.30;;
13785;SDS011;47474;48.824;9.384;2023-02-26T14:31:15;1.30;;;1.20;;
13785;SDS011;47474;48.824;9.384;2023-02-26T14:33:44;1.23;;;1.13;;
13785;SDS011;47474;48.824;9.384;2023-02-26T14:36:17;0.90;;;0.80;;
13785;SDS011;47474;48.824;9.384;2023-02-26T14:38:46;1.40;;;1.30;;
13785;SDS011;47474;48.824;9.384;2023-02-26T14:41:24;1.13;;;1.07;;
13785;SDS011;47474;48.824;9.384;2023-02-26T14:43:54;2.47;;;1.10;;
13785;SDS011;47474;48.824;9.384;2023-02-26T14:46:24;1.33;;;1.10;;
13785;SDS011;47474;48.824;9.384;2023-02-26T14:48:50;1.60;;;1.10;;
13785;SDS011;47474;48.824;9.384;2023-02-26T14:51:22;1.20;;;1.10;;
13785;SDS011;47474;48.824;9.384;2023-02-26T14:53:59;2.57;;;1.93;;
13785;SDS011;47474;48.824;9.384;2023-02-26T14:56:35;1.40;;;1.30;;
13785;SDS011;47474;48.824;9.384;2023-02-26T14:59:13;1.20;;;1.10;;
13785;SDS011;47474;48.824;9.384;2023-02-26T15:01:52;3.10;;;2.10;;
13785;SDS011;47474;48.824;9.384;2023-02-26T15:07:33;1.30;;;1.20;;
13785;SDS011;47474;48.824;9.384;2023-02-26T15:10:09;1.40;;;1.30;;